This is the latest recevied weather packets stored in our database for station/object OM3WYM-13. If no packets are shown the sender has not sent any weather packets the latest 10 day(s).
| Time | Temp. | Humidity | Pressure | Rain* | Wind** | Luminosity | Snow |
|---|---|---|---|---|---|---|---|
| 1777409408 | 2.22° C | 50% | 1023.8 hPa | - | - | - | - |
| 1777408208 | 2.78° C | 48% | 1023.6 hPa | - | - | - | - |
| 1777407608 | 2.78° C | 47% | 1023.6 hPa | - | - | - | - |
| 1777407008 | 3.33° C | 46% | 1023.4 hPa | - | - | - | - |
| 1777406408 | 3.33° C | 45% | 1023.3 hPa | - | - | - | - |
| 1777405808 | 3.89° C | 45% | 1023.1 hPa | - | - | - | - |
| 1777405208 | 3.89° C | 44% | 1023.1 hPa | - | - | - | - |
| 1777404608 | 4.44° C | 44% | 1023 hPa | - | - | - | - |
| 1777404008 | 5° C | 43% | 1022.9 hPa | - | - | - | - |
| 1777403408 | 5.56° C | 40% | 1022.7 hPa | - | - | - | - |
| 1777402208 | 6.67° C | 38% | 1022.5 hPa | - | - | - | - |
| 1777400408 | 8.33° C | 33% | 1021.9 hPa | - | - | - | - |
| 1777398608 | 10° C | 28% | 1021.2 hPa | - | - | - | - |
| 1777397408 | 11.11° C | 26% | 1020.9 hPa | - | - | - | - |
| 1777396808 | 11.11° C | 26% | 1020.7 hPa | - | - | - | - |
| 1777396208 | 12.22° C | 25% | 1020.6 hPa | - | - | - | - |
| 1777395608 | 13.33° C | 23% | 1020.2 hPa | - | - | - | - |
| 1777395008 | 14.44° C | 21% | 1020 hPa | - | - | - | - |
| 1777393808 | 16.67° C | 20% | 1019.6 hPa | - | - | - | - |
| 1777392608 | 17.78° C | 18% | 1019.4 hPa | - | - | - | - |
| 1777391408 | 17.78° C | 19% | 1019.5 hPa | - | - | - | - |
| 1777390808 | 17.78° C | 19% | 1019.4 hPa | - | - | - | - |
| 1777390208 | 17.78° C | 18% | 1019.5 hPa | - | - | - | - |
| 1777389608 | 17.22° C | 19% | 1019.5 hPa | - | - | - | - |
| 1777387808 | 16.67° C | 22% | 1019.7 hPa | - | - | - | - |
* Rain since midnight (hover to see other rain measurements)
** Current wind speed in m/s (hover to see current wind gust speed)